createdAt,value
2018-04-29T00:00:37.224Z,23.18
2018-04-29T00:01:37.228Z,23.13
2018-04-29T00:02:37.212Z,23.13
2018-04-29T00:03:37.207Z,23.11
2018-04-29T00:04:37.208Z,23.14
2018-04-29T00:05:37.239Z,23.08
2018-04-29T00:06:37.188Z,23.17
2018-04-29T00:07:37.184Z,23.13
2018-04-29T00:08:37.178Z,23.21
2018-04-29T00:09:37.171Z,23.13
2018-04-29T00:10:37.165Z,23.16
2018-04-29T00:11:37.159Z,23.11
2018-04-29T00:12:37.160Z,23.17
2018-04-29T00:13:37.148Z,23.08
2018-04-29T00:14:37.141Z,23.06
2018-04-29T00:15:37.136Z,23.14
2018-04-29T00:16:37.130Z,23.11
2018-04-29T00:17:37.130Z,23.13
2018-04-29T00:18:37.118Z,23.16
2018-04-29T00:19:37.124Z,23.08
2018-04-29T00:20:37.125Z,23.08
2018-04-29T00:21:37.101Z,23.10
2018-04-29T00:22:37.095Z,23.14
2018-04-29T00:23:37.091Z,23.08
2018-04-29T00:24:37.083Z,23.06
2018-04-29T00:25:37.077Z,23.13
2018-04-29T00:26:37.073Z,23.04
2018-04-29T00:27:37.066Z,23.06
2018-04-29T00:28:37.072Z,23.11
2018-04-29T00:29:37.056Z,23.08
2018-04-29T00:30:37.053Z,23.04
2018-04-29T00:31:37.042Z,23.10
2018-04-29T00:32:37.038Z,23.01
2018-04-29T00:33:37.027Z,22.99
2018-04-29T00:34:37.025Z,23.02
2018-04-29T00:35:37.020Z,23.02
2018-04-29T00:36:37.016Z,23.01
2018-04-29T00:37:37.004Z,23.04
2018-04-29T00:38:37.019Z,23.01
2018-04-29T00:39:36.996Z,23.01
2018-04-29T00:40:36.991Z,22.99
2018-04-29T00:41:36.983Z,23.01
2018-04-29T00:42:36.989Z,23.01
2018-04-29T00:43:36.969Z,22.99
2018-04-29T00:44:36.965Z,23.04
2018-04-29T00:45:36.959Z,23.10
2018-04-29T00:46:36.961Z,23.08
2018-04-29T00:47:36.949Z,23.04
2018-04-29T00:48:36.948Z,23.07
2018-04-29T00:49:36.936Z,23.08
2018-04-29T00:50:36.932Z,23.06
2018-04-29T00:51:36.923Z,22.96
2018-04-29T00:52:36.923Z,22.99
2018-04-29T00:53:36.921Z,23.04
2018-04-29T00:54:36.909Z,22.95
2018-04-29T00:55:36.901Z,23.01
2018-04-29T00:56:36.894Z,23.02
2018-04-29T00:57:36.892Z,23.02
2018-04-29T00:58:36.886Z,22.98
2018-04-29T00:59:36.873Z,23.02
2018-04-29T01:00:36.872Z,23.06
2018-04-29T01:01:36.876Z,23.07
2018-04-29T01:02:36.861Z,23.07
2018-04-29T01:03:36.853Z,23.07
2018-04-29T01:04:36.852Z,22.98
2018-04-29T01:05:36.849Z,22.99
2018-04-29T01:06:36.836Z,23.02
2018-04-29T01:07:36.832Z,23.02
2018-04-29T01:08:36.833Z,22.98
2018-04-29T01:09:36.821Z,23.01
2018-04-29T01:10:36.816Z,23.06
2018-04-29T01:11:36.810Z,23.02
2018-04-29T01:12:36.806Z,23.06
2018-04-29T01:13:36.803Z,22.93
2018-04-29T01:14:36.792Z,23.01
2018-04-29T01:15:36.782Z,22.98
2018-04-29T01:16:36.789Z,23.02
2018-04-29T01:17:36.777Z,23.01
2018-04-29T01:18:36.769Z,22.99
2018-04-29T01:19:36.766Z,22.98
2018-04-29T01:20:36.760Z,22.99
2018-04-29T01:21:36.746Z,23.04
2018-04-29T01:22:36.747Z,23.01
2018-04-29T01:23:36.737Z,22.95
2018-04-29T01:24:36.739Z,22.96
2018-04-29T01:25:36.730Z,22.98
2018-04-29T01:26:36.730Z,23.02
2018-04-29T01:27:36.716Z,22.99
2018-04-29T01:28:36.710Z,23.04
2018-04-29T01:29:36.704Z,23.04
2018-04-29T01:30:36.699Z,22.99
2018-04-29T01:31:36.692Z,22.96
2018-04-29T01:32:36.688Z,22.93
2018-04-29T01:33:36.687Z,23.04
2018-04-29T01:34:36.682Z,23.06
2018-04-29T01:35:36.671Z,22.98
2018-04-29T01:36:36.663Z,22.96
2018-04-29T01:37:36.663Z,23.02
2018-04-29T01:38:36.649Z,23.04
2018-04-29T01:39:36.653Z,22.96
2018-04-29T01:40:36.642Z,22.98
2018-04-29T01:41:36.639Z,22.95
2018-04-29T01:42:36.633Z,23.02
2018-04-29T01:43:36.623Z,22.98
2018-04-29T01:44:36.621Z,22.99
2018-04-29T01:45:36.614Z,23.01
2018-04-29T01:46:36.606Z,22.96
2018-04-29T01:47:36.603Z,22.92
2018-04-29T01:48:36.596Z,22.95
2018-04-29T01:49:36.592Z,23.02
2018-04-29T01:50:36.585Z,22.98
2018-04-29T01:51:36.655Z,23.01
2018-04-29T01:52:36.575Z,22.95
2018-04-29T01:53:36.569Z,22.96
2018-04-29T01:54:36.565Z,22.99
2018-04-29T01:55:36.562Z,22.98
2018-04-29T01:56:36.544Z,22.95
2018-04-29T01:57:36.546Z,22.95
2018-04-29T01:58:36.541Z,22.96
2018-04-29T01:59:36.538Z,22.95
2018-04-29T02:00:36.528Z,22.96
2018-04-29T02:01:36.523Z,22.93
2018-04-29T02:02:36.516Z,22.98
2018-04-29T02:03:36.507Z,23.01
2018-04-29T02:04:36.503Z,22.95
2018-04-29T02:05:36.498Z,22.95
2018-04-29T02:06:36.499Z,22.93
2018-04-29T02:07:36.492Z,22.93
2018-04-29T02:08:36.480Z,22.95
2018-04-29T02:09:36.483Z,22.96
2018-04-29T02:10:36.472Z,22.95
2018-04-29T02:11:36.465Z,22.93
2018-04-29T02:12:36.457Z,22.98
2018-04-29T02:13:36.449Z,22.95
2018-04-29T02:14:36.468Z,22.92
2018-04-29T02:15:36.443Z,22.98
2018-04-29T02:16:36.452Z,22.96
2018-04-29T02:17:36.431Z,22.99
2018-04-29T02:18:36.428Z,22.93
2018-04-29T02:19:36.421Z,22.95
2018-04-29T02:20:36.415Z,22.95
2018-04-29T02:21:36.409Z,22.95
2018-04-29T02:22:36.403Z,22.96
2018-04-29T02:23:36.398Z,22.95
2018-04-29T02:24:36.396Z,22.96
2018-04-29T02:25:36.411Z,22.99
2018-04-29T02:26:36.380Z,22.93
2018-04-29T02:27:36.400Z,22.96
2018-04-29T02:28:36.376Z,22.98
2018-04-29T02:29:36.374Z,22.95
2018-04-29T02:30:36.356Z,22.96
2018-04-29T02:31:36.357Z,22.91
2018-04-29T02:32:36.356Z,22.92
2018-04-29T02:33:36.341Z,22.92
2018-04-29T02:34:36.335Z,22.93
2018-04-29T02:35:36.329Z,22.98
2018-04-29T02:36:36.321Z,22.95
2018-04-29T02:37:36.318Z,22.88
2018-04-29T02:38:36.312Z,22.95
2018-04-29T02:39:36.312Z,22.92
2018-04-29T02:40:36.300Z,22.96
2018-04-29T02:41:36.299Z,22.95
2018-04-29T02:42:36.289Z,22.91
2018-04-29T02:43:36.283Z,22.88
2018-04-29T02:44:36.275Z,22.92
2018-04-29T02:45:36.272Z,22.88
2018-04-29T02:46:36.271Z,22.92
2018-04-29T02:47:36.260Z,22.92
2018-04-29T02:48:36.255Z,22.86
2018-04-29T02:49:36.250Z,22.83
2018-04-29T02:50:36.243Z,22.93
2018-04-29T02:51:36.242Z,22.83
2018-04-29T02:52:36.231Z,22.88
2018-04-29T02:53:36.233Z,22.91
2018-04-29T02:54:36.221Z,22.78
2018-04-29T02:55:36.223Z,22.84
2018-04-29T02:56:36.210Z,22.89
2018-04-29T02:57:36.204Z,22.84
2018-04-29T02:58:36.197Z,22.84
2018-04-29T02:59:36.190Z,22.77
2018-04-29T03:00:36.189Z,22.81
2018-04-29T03:01:36.181Z,22.81
2018-04-29T03:02:36.173Z,22.80
2018-04-29T03:03:36.180Z,22.86
2018-04-29T03:04:36.161Z,22.80
2018-04-29T03:05:36.157Z,22.81
2018-04-29T03:06:36.155Z,22.84
2018-04-29T03:07:36.145Z,22.86
2018-04-29T03:08:36.139Z,22.86
2018-04-29T03:09:36.136Z,22.88
2018-04-29T03:10:36.134Z,22.83
2018-04-29T03:11:36.122Z,22.84
2018-04-29T03:12:36.116Z,22.84
2018-04-29T03:13:36.113Z,22.84
2018-04-29T03:14:36.109Z,22.80
2018-04-29T03:15:36.100Z,22.83
2018-04-29T03:16:36.092Z,22.83
2018-04-29T03:17:36.082Z,22.83
2018-04-29T03:18:36.084Z,22.89
2018-04-29T03:19:36.080Z,22.84
2018-04-29T03:20:36.066Z,22.86
2018-04-29T03:21:36.064Z,22.81
2018-04-29T03:22:36.064Z,22.84
2018-04-29T03:23:36.052Z,22.83
2018-04-29T03:24:36.051Z,22.83
2018-04-29T03:25:36.043Z,22.83
2018-04-29T03:26:36.037Z,22.83
2018-04-29T03:27:36.029Z,22.78
2018-04-29T03:28:36.027Z,22.81
2018-04-29T03:29:36.028Z,22.83
2018-04-29T03:30:36.013Z,22.86
2018-04-29T03:31:36.038Z,22.83
2018-04-29T03:32:36.001Z,22.86
2018-04-29T03:33:36.001Z,22.81
2018-04-29T03:34:35.993Z,22.80
2018-04-29T03:35:35.984Z,22.81
2018-04-29T03:36:35.976Z,22.83
2018-04-29T03:37:35.972Z,22.83
2018-04-29T03:38:35.969Z,22.84
2018-04-29T03:39:35.967Z,22.80
2018-04-29T03:40:35.954Z,22.80
2018-04-29T03:41:35.948Z,22.83
2018-04-29T03:42:35.940Z,22.83
2018-04-29T03:43:35.939Z,22.80
2018-04-29T03:44:35.931Z,22.77
2018-04-29T03:45:35.927Z,22.80
2018-04-29T03:46:35.921Z,22.83
2018-04-29T03:47:35.916Z,22.84
2018-04-29T03:48:35.910Z,22.80
2018-04-29T03:49:35.905Z,22.88
2018-04-29T03:50:35.899Z,22.80
2018-04-29T03:51:35.885Z,22.80
2018-04-29T03:52:35.888Z,22.76
2018-04-29T03:53:35.878Z,22.83
2018-04-29T03:54:35.887Z,22.80
2018-04-29T03:55:35.873Z,22.83
2018-04-29T03:56:35.870Z,22.80
2018-04-29T03:57:35.858Z,22.77
2018-04-29T03:58:35.852Z,22.80
2018-04-29T03:59:35.845Z,22.84
2018-04-29T04:00:35.843Z,22.81
2018-04-29T04:01:35.838Z,22.86
2018-04-29T04:02:35.851Z,22.81
2018-04-29T04:03:35.823Z,22.81
2018-04-29T04:04:35.824Z,22.80
2018-04-29T04:05:35.815Z,22.81
2018-04-29T04:06:35.811Z,22.83
2018-04-29T04:07:35.800Z,22.86
2018-04-29T04:08:35.791Z,22.91
2018-04-29T04:09:35.799Z,22.91
2018-04-29T04:10:35.782Z,22.91
2018-04-29T04:11:35.788Z,22.93
2018-04-29T04:12:35.775Z,22.92
2018-04-29T04:13:35.766Z,22.96
2018-04-29T04:14:35.762Z,22.95
2018-04-29T04:15:35.754Z,22.95
2018-04-29T04:16:35.748Z,22.93
2018-04-29T04:17:35.744Z,22.98
2018-04-29T04:18:35.736Z,22.98
2018-04-29T04:19:35.732Z,22.95
2018-04-29T04:20:35.726Z,23.01
2018-04-29T04:21:35.725Z,23.06
2018-04-29T04:22:35.716Z,22.98
2018-04-29T04:23:35.710Z,23.01
2018-04-29T04:24:35.706Z,22.96
2018-04-29T04:25:35.701Z,23.02
2018-04-29T04:26:35.690Z,22.99
2018-04-29T04:27:35.690Z,22.99
2018-04-29T04:28:35.679Z,23.02
2018-04-29T04:29:35.694Z,23.04
2018-04-29T04:30:35.737Z,22.99
2018-04-29T04:31:35.662Z,23.01
2018-04-29T04:32:35.705Z,22.98
2018-04-29T04:33:35.652Z,23.01
2018-04-29T04:34:35.651Z,23.06
2018-04-29T04:35:35.640Z,22.99
2018-04-29T04:36:35.637Z,23.02
2018-04-29T04:37:35.631Z,23.04
2018-04-29T04:38:35.665Z,23.04
2018-04-29T04:39:35.640Z,22.99
2018-04-29T04:40:35.610Z,22.99
2018-04-29T04:41:35.607Z,23.02
2018-04-29T04:42:35.608Z,22.96
2018-04-29T04:43:35.621Z,22.98
2018-04-29T04:44:35.599Z,23.02
2018-04-29T04:45:35.583Z,23.01
2018-04-29T04:46:35.580Z,23.01
2018-04-29T04:47:35.571Z,22.96
2018-04-29T04:48:35.567Z,22.96
2018-04-29T04:49:35.565Z,22.95
2018-04-29T04:50:35.558Z,22.99
2018-04-29T04:51:35.547Z,23.02
2018-04-29T04:52:35.548Z,23.01
2018-04-29T04:53:35.535Z,22.96
2018-04-29T04:54:35.534Z,22.98
2018-04-29T04:55:35.527Z,22.95
2018-04-29T04:56:35.520Z,22.91
2018-04-29T04:57:35.516Z,22.93
2018-04-29T04:58:35.508Z,22.92
2018-04-29T04:59:35.511Z,22.95
2018-04-29T05:00:35.509Z,22.99
2018-04-29T05:01:35.500Z,22.93
2018-04-29T05:02:35.495Z,22.98
2018-04-29T05:03:35.477Z,22.93
2018-04-29T05:04:35.473Z,22.95
2018-04-29T05:05:35.468Z,22.93
2018-04-29T05:06:35.459Z,22.95
2018-04-29T05:07:35.459Z,22.89
2018-04-29T05:08:35.452Z,22.98
2018-04-29T05:09:35.444Z,22.96
2018-04-29T05:10:35.440Z,22.96
2018-04-29T05:11:35.457Z,22.93
2018-04-29T05:12:35.428Z,22.88
2018-04-29T05:13:35.422Z,22.93
2018-04-29T05:14:35.460Z,22.92
2018-04-29T05:15:35.418Z,22.92
2018-04-29T05:16:35.403Z,22.89
2018-04-29T05:17:35.398Z,22.93
2018-04-29T05:18:35.397Z,22.86
2018-04-29T05:19:35.397Z,22.93
2018-04-29T05:20:35.383Z,22.88
2018-04-29T05:21:35.377Z,22.92
2018-04-29T05:22:35.371Z,22.89
2018-04-29T05:23:35.364Z,22.91
2018-04-29T05:24:35.361Z,22.89
2018-04-29T05:25:35.353Z,22.81
2018-04-29T05:26:35.347Z,22.95
2018-04-29T05:27:35.342Z,22.81
2018-04-29T05:28:35.334Z,22.91
2018-04-29T05:29:35.333Z,22.89
2018-04-29T05:30:35.330Z,22.84
2018-04-29T05:31:35.326Z,22.95
2018-04-29T05:32:35.311Z,22.83
2018-04-29T05:33:35.305Z,22.91
2018-04-29T05:34:35.321Z,22.88
2018-04-29T05:35:35.302Z,22.84
2018-04-29T05:36:35.308Z,22.86
2018-04-29T05:37:35.284Z,22.89
2018-04-29T05:38:35.279Z,22.81
2018-04-29T05:39:35.276Z,22.91
2018-04-29T05:40:35.271Z,22.86
2018-04-29T05:41:35.261Z,22.86
2018-04-29T05:42:35.257Z,22.88
2018-04-29T05:43:35.249Z,22.89
2018-04-29T05:44:35.271Z,22.83
2018-04-29T05:45:35.239Z,22.89
2018-04-29T05:46:35.237Z,22.89
2018-04-29T05:47:35.224Z,22.92
2018-04-29T05:48:35.217Z,22.92
2018-04-29T05:49:35.215Z,22.88
2018-04-29T05:50:35.208Z,22.92
2018-04-29T05:51:35.205Z,22.93
2018-04-29T05:52:35.205Z,22.88
2018-04-29T05:53:35.200Z,22.95
2018-04-29T05:54:35.187Z,22.89
2018-04-29T05:55:35.174Z,22.93
2018-04-29T05:56:35.174Z,22.93
2018-04-29T05:57:35.172Z,22.93
2018-04-29T05:58:35.166Z,22.95
2018-04-29T05:59:35.160Z,22.92
2018-04-29T06:00:35.155Z,22.99
2018-04-29T06:01:35.150Z,22.95
2018-04-29T06:02:35.148Z,22.92
2018-04-29T06:03:35.136Z,22.95
2018-04-29T06:04:35.135Z,22.98
2018-04-29T06:05:35.120Z,22.93
2018-04-29T06:06:35.133Z,22.95
2018-04-29T06:07:35.111Z,22.96
2018-04-29T06:08:35.109Z,22.99
2018-04-29T06:09:35.104Z,22.95
2018-04-29T06:10:35.097Z,22.98
2018-04-29T06:11:35.090Z,22.95
2018-04-29T06:12:35.085Z,23.01
2018-04-29T06:13:35.083Z,22.95
2018-04-29T06:14:35.079Z,23.02
2018-04-29T06:15:35.065Z,22.96
2018-04-29T06:16:35.064Z,22.96
2018-04-29T06:17:35.060Z,22.98
2018-04-29T06:18:35.052Z,22.95
2018-04-29T06:19:35.047Z,22.98
2018-04-29T06:20:35.076Z,22.93
2018-04-29T06:21:35.034Z,22.93
2018-04-29T06:22:35.028Z,22.93
2018-04-29T06:23:35.022Z,22.95
2018-04-29T06:24:35.013Z,22.98
2018-04-29T06:25:35.021Z,22.96
2018-04-29T06:26:35.079Z,22.99
2018-04-29T06:27:35.002Z,22.99
2018-04-29T06:28:34.995Z,23.01
2018-04-29T06:29:34.989Z,23.04
2018-04-29T06:30:34.986Z,23.04
2018-04-29T06:31:34.976Z,23.02
2018-04-29T06:32:34.971Z,22.95
2018-04-29T06:33:34.964Z,22.96
2018-04-29T06:34:34.962Z,23.04
2018-04-29T06:35:34.948Z,23.04
2018-04-29T06:36:34.961Z,23.04
2018-04-29T06:37:34.941Z,23.07
2018-04-29T06:38:34.944Z,23.07
2018-04-29T06:39:34.933Z,22.99
2018-04-29T06:40:34.924Z,22.98
2018-04-29T06:41:34.918Z,23.06
2018-04-29T06:42:34.917Z,22.98
2018-04-29T06:43:34.931Z,23.07
2018-04-29T06:44:34.904Z,23.06
2018-04-29T06:45:34.899Z,22.98
2018-04-29T06:46:34.938Z,23.01
2018-04-29T06:47:34.884Z,23.10
2018-04-29T06:48:34.880Z,23.06
2018-04-29T06:49:34.868Z,23.11
2018-04-29T06:50:34.868Z,23.13
2018-04-29T06:51:34.871Z,23.10
2018-04-29T06:52:34.854Z,23.18
2018-04-29T06:53:34.931Z,23.18
2018-04-29T06:54:34.845Z,23.07
2018-04-29T06:55:34.841Z,23.28
2018-04-29T06:56:34.837Z,23.29
2018-04-29T06:57:34.825Z,23.44
2018-04-29T06:58:34.826Z,23.44
2018-04-29T06:59:34.833Z,23.32
2018-04-29T07:00:34.810Z,23.33
2018-04-29T07:01:34.804Z,23.11
2018-04-29T07:02:34.827Z,23.17
2018-04-29T07:03:34.791Z,23.17
2018-04-29T07:04:34.783Z,23.14
2018-04-29T07:05:34.779Z,23.21
2018-04-29T07:06:34.773Z,23.20
2018-04-29T07:07:34.771Z,23.33
2018-04-29T07:08:34.759Z,23.33
2018-04-29T07:09:34.751Z,23.39
2018-04-29T07:10:34.750Z,23.47
2018-04-29T07:11:34.736Z,23.51
2018-04-29T07:12:34.730Z,23.55
2018-04-29T07:13:34.726Z,23.64
2018-04-29T07:14:34.720Z,23.70
2018-04-29T07:15:34.715Z,23.67
2018-04-29T07:16:34.707Z,23.74
2018-04-29T07:17:34.700Z,23.76
2018-04-29T07:18:34.693Z,23.77
2018-04-29T07:19:34.686Z,23.81
2018-04-29T07:20:34.749Z,23.95
2018-04-29T07:21:34.676Z,23.94
2018-04-29T07:22:34.665Z,23.91
2018-04-29T07:23:34.718Z,23.92
2018-04-29T07:24:34.643Z,23.96
2018-04-29T07:25:34.649Z,23.94
2018-04-29T07:26:34.637Z,23.96
2018-04-29T07:27:34.632Z,23.96
2018-04-29T07:28:34.660Z,23.99
2018-04-29T07:29:34.627Z,24.00
2018-04-29T07:30:34.612Z,23.99
2018-04-29T07:31:34.608Z,23.95
2018-04-29T07:32:34.600Z,23.99
2018-04-29T07:33:34.592Z,24.09
2018-04-29T07:34:34.585Z,24.06
2018-04-29T07:35:34.578Z,24.09
2018-04-29T07:36:34.577Z,24.07
2018-04-29T07:37:34.572Z,24.07
2018-04-29T07:38:34.557Z,24.18
2018-04-29T07:39:34.552Z,24.14
2018-04-29T07:40:34.545Z,24.13
2018-04-29T07:41:34.536Z,24.13
2018-04-29T07:42:34.532Z,24.16
2018-04-29T07:43:34.533Z,24.14
2018-04-29T07:44:34.521Z,24.09
2018-04-29T07:45:34.513Z,24.11
2018-04-29T07:46:34.516Z,24.09
2018-04-29T07:47:34.500Z,24.07
2018-04-29T07:48:34.491Z,24.06
2018-04-29T07:49:34.491Z,24.09
2018-04-29T07:50:34.481Z,24.07
2018-04-29T07:51:34.476Z,24.13
2018-04-29T07:52:34.505Z,24.18
2018-04-29T07:53:34.460Z,24.13
2018-04-29T07:54:34.455Z,24.16
2018-04-29T07:55:34.445Z,24.11
2018-04-29T07:56:34.441Z,24.14
2018-04-29T07:57:34.432Z,24.16
2018-04-29T07:58:34.434Z,24.26
2018-04-29T07:59:34.419Z,24.18
2018-04-29T08:00:34.414Z,24.19
2018-04-29T08:01:34.440Z,24.24
2018-04-29T08:02:34.443Z,24.16
2018-04-29T08:03:34.394Z,24.11
2018-04-29T08:04:34.388Z,24.21
2018-04-29T08:05:34.388Z,24.31
2018-04-29T08:06:34.376Z,24.43
2018-04-29T08:07:34.368Z,24.34
2018-04-29T08:08:34.362Z,24.46
2018-04-29T08:09:34.357Z,24.47
2018-04-29T08:10:34.350Z,24.43
2018-04-29T08:11:34.344Z,24.50
2018-04-29T08:12:34.339Z,24.48
2018-04-29T08:13:34.339Z,24.47
2018-04-29T08:14:34.325Z,24.58
2018-04-29T08:15:34.422Z,24.66
2018-04-29T08:16:34.308Z,24.66
2018-04-29T08:17:34.306Z,24.68
2018-04-29T08:18:34.300Z,24.69
2018-04-29T08:19:34.290Z,24.65
2018-04-29T08:20:34.287Z,24.68
2018-04-29T08:21:34.280Z,24.79
2018-04-29T08:22:34.283Z,24.79
2018-04-29T08:23:34.267Z,24.85
2018-04-29T08:24:34.257Z,24.88
2018-04-29T08:25:34.260Z,24.84
2018-04-29T08:26:34.251Z,24.86
2018-04-29T08:27:34.246Z,24.97
2018-04-29T08:28:34.249Z,24.92
2018-04-29T08:29:34.227Z,24.81
2018-04-29T08:30:34.223Z,24.86
2018-04-29T08:31:34.215Z,24.84
2018-04-29T08:32:34.210Z,24.78
2018-04-29T08:33:34.205Z,24.77
2018-04-29T08:34:34.197Z,24.69
2018-04-29T08:35:34.190Z,24.66
2018-04-29T08:36:34.185Z,24.65
2018-04-29T08:37:34.182Z,24.66
2018-04-29T08:38:34.174Z,24.66
2018-04-29T08:39:34.164Z,24.63
2018-04-29T08:40:34.162Z,24.56
2018-04-29T08:41:34.152Z,24.53
2018-04-29T08:42:34.145Z,24.58
2018-04-29T08:43:34.147Z,24.41
2018-04-29T08:44:34.135Z,24.47
2018-04-29T08:45:34.127Z,24.50
2018-04-29T08:46:34.121Z,24.47
2018-04-29T08:47:34.114Z,24.44
2018-04-29T08:48:34.131Z,24.48
2018-04-29T08:49:34.101Z,24.44
2018-04-29T08:50:34.096Z,24.38
2018-04-29T08:51:34.092Z,24.40
2018-04-29T08:52:34.089Z,24.46
2018-04-29T08:53:34.077Z,24.40
2018-04-29T08:54:34.069Z,24.44
2018-04-29T08:55:34.064Z,24.46
2018-04-29T08:56:34.058Z,24.47
2018-04-29T08:57:34.052Z,24.46
2018-04-29T08:58:34.049Z,24.46
2018-04-29T08:59:34.038Z,24.59
2018-04-29T09:00:34.031Z,24.61
2018-04-29T09:01:34.029Z,24.66
2018-04-29T09:02:34.020Z,24.74
2018-04-29T09:03:34.021Z,24.82
2018-04-29T09:04:34.006Z,24.92
2018-04-29T09:05:33.999Z,24.88
2018-04-29T09:06:33.993Z,24.94
2018-04-29T09:07:33.990Z,24.96
2018-04-29T09:08:33.981Z,25.01
2018-04-29T09:09:33.969Z,25.14
2018-04-29T09:10:33.969Z,25.04
2018-04-29T09:11:33.981Z,25.14
2018-04-29T09:12:33.957Z,25.19
2018-04-29T09:13:33.951Z,25.16
2018-04-29T09:14:33.953Z,25.25
2018-04-29T09:15:33.938Z,25.37
2018-04-29T09:16:33.930Z,25.26
2018-04-29T09:17:33.989Z,25.25
2018-04-29T09:18:33.921Z,25.26
2018-04-29T09:19:33.943Z,25.26
2018-04-29T09:20:33.907Z,25.36
2018-04-29T09:21:33.902Z,25.26
2018-04-29T09:22:33.899Z,25.29
2018-04-29T09:23:33.888Z,25.26
2018-04-29T09:24:33.882Z,25.25
2018-04-29T09:25:33.875Z,25.37
2018-04-29T09:26:33.870Z,25.34
2018-04-29T09:27:33.863Z,25.36
2018-04-29T09:28:33.858Z,25.49
2018-04-29T09:29:33.857Z,25.52
2018-04-29T09:30:33.850Z,25.49
2018-04-29T09:31:33.840Z,25.52
2018-04-29T09:32:33.834Z,25.52
2018-04-29T09:33:33.829Z,25.49
2018-04-29T09:34:33.824Z,25.49
2018-04-29T09:35:33.820Z,25.49
2018-04-29T09:36:33.815Z,25.48
2018-04-29T09:37:33.806Z,25.33
2018-04-29T09:38:33.801Z,25.43
2018-04-29T09:39:33.798Z,25.44
2018-04-29T09:40:33.785Z,25.34
2018-04-29T09:41:33.780Z,25.31
2018-04-29T09:42:33.773Z,25.39
2018-04-29T09:43:33.880Z,25.31
2018-04-29T09:44:33.762Z,25.34
2018-04-29T09:45:33.758Z,25.36
2018-04-29T09:46:33.750Z,25.44
2018-04-29T09:47:33.742Z,25.49
2018-04-29T09:48:33.765Z,25.43
2018-04-29T09:49:33.734Z,25.49
2018-04-29T09:50:33.726Z,25.54
2018-04-29T09:51:33.720Z,25.61
2018-04-29T09:52:33.714Z,25.62
2018-04-29T09:53:33.715Z,25.59
2018-04-29T09:54:33.722Z,25.70
2018-04-29T09:55:33.710Z,25.74
2018-04-29T09:56:33.693Z,25.78
2018-04-29T09:57:33.685Z,25.80
2018-04-29T09:58:33.681Z,25.88
2018-04-29T09:59:33.671Z,25.91
2018-04-29T10:00:33.668Z,25.92
2018-04-29T10:01:33.662Z,25.99
2018-04-29T10:02:33.665Z,25.96
2018-04-29T10:03:33.650Z,25.99
2018-04-29T10:04:33.653Z,26.10
2018-04-29T10:05:33.640Z,26.03
2018-04-29T10:06:33.635Z,26.03
2018-04-29T10:07:33.629Z,26.04
2018-04-29T10:08:33.621Z,26.08
2018-04-29T10:09:33.640Z,26.13
2018-04-29T10:10:33.611Z,26.08
2018-04-29T10:11:33.605Z,26.22
2018-04-29T10:12:33.599Z,26.16
2018-04-29T10:13:33.593Z,26.18
2018-04-29T10:14:33.589Z,26.27
2018-04-29T10:15:33.581Z,26.26
2018-04-29T10:16:33.578Z,26.11
2018-04-29T10:17:33.575Z,26.27
2018-04-29T10:18:33.565Z,26.24
2018-04-29T10:19:33.559Z,26.29
2018-04-29T10:20:33.553Z,26.33
2018-04-29T10:21:33.550Z,26.27
2018-04-29T10:22:33.541Z,26.33
2018-04-29T10:23:33.539Z,26.34
2018-04-29T10:24:33.537Z,26.30
2018-04-29T10:25:33.530Z,26.33
2018-04-29T10:26:33.528Z,26.41
2018-04-29T10:27:33.516Z,26.34
2018-04-29T10:28:33.513Z,26.34
2018-04-29T10:29:33.506Z,26.27
2018-04-29T10:30:33.500Z,26.44
2018-04-29T10:31:33.508Z,26.39
2018-04-29T10:32:33.493Z,26.41
2018-04-29T10:33:33.483Z,26.44
2018-04-29T10:34:33.478Z,26.44
2018-04-29T10:35:33.473Z,26.39
2018-04-29T10:36:33.470Z,26.48
2018-04-29T10:37:33.464Z,26.37
2018-04-29T10:38:33.457Z,26.39
2018-04-29T10:39:33.452Z,26.46
2018-04-29T10:40:33.445Z,26.44
2018-04-29T10:41:33.439Z,26.48
2018-04-29T10:42:33.444Z,26.48
2018-04-29T10:43:33.435Z,26.42
2018-04-29T10:44:33.435Z,26.46
2018-04-29T10:45:33.426Z,26.44
2018-04-29T10:46:33.415Z,26.48
2018-04-29T10:47:33.408Z,26.48
2018-04-29T10:48:33.401Z,26.45
2018-04-29T10:49:33.399Z,26.49
2018-04-29T10:50:33.393Z,26.49
2018-04-29T10:51:33.385Z,26.45
2018-04-29T10:52:33.482Z,26.48
2018-04-29T10:53:33.377Z,26.45
2018-04-29T10:54:33.374Z,26.45
2018-04-29T10:55:33.365Z,26.46
2018-04-29T10:56:33.393Z,26.44
2018-04-29T10:57:33.355Z,26.48
2018-04-29T10:58:33.347Z,26.48
2018-04-29T10:59:33.343Z,26.52
2018-04-29T11:00:33.338Z,26.48
2018-04-29T11:01:33.337Z,26.53
2018-04-29T11:02:33.331Z,26.55
2018-04-29T11:03:33.325Z,26.56
2018-04-29T11:04:33.319Z,26.51
2018-04-29T11:05:33.312Z,26.59
2018-04-29T11:06:33.309Z,26.61
2018-04-29T11:07:33.301Z,26.59
2018-04-29T11:08:33.300Z,26.51
2018-04-29T11:09:33.293Z,26.52
2018-04-29T11:10:33.290Z,26.53
2018-04-29T11:11:33.281Z,26.59
2018-04-29T11:12:33.280Z,26.61
2018-04-29T11:13:33.270Z,26.64
2018-04-29T11:14:33.267Z,26.59
2018-04-29T11:15:33.262Z,26.68
2018-04-29T11:16:33.255Z,26.64
2018-04-29T11:17:33.249Z,26.71
2018-04-29T11:18:33.245Z,26.67
2018-04-29T11:19:33.246Z,26.67
2018-04-29T11:20:33.239Z,26.64
2018-04-29T11:21:33.229Z,26.70
2018-04-29T11:22:33.224Z,26.64
2018-04-29T11:23:33.222Z,26.55
2018-04-29T11:24:33.217Z,26.60
2018-04-29T11:25:33.298Z,26.60
2018-04-29T11:26:33.202Z,26.66
2018-04-29T11:27:33.198Z,26.52
2018-04-29T11:28:33.230Z,26.53
2018-04-29T11:29:33.190Z,26.52
2018-04-29T11:30:33.188Z,26.61
2018-04-29T11:31:33.176Z,26.56
2018-04-29T11:32:33.171Z,26.52
2018-04-29T11:33:33.168Z,26.49
2018-04-29T11:34:33.161Z,26.49
2018-04-29T11:35:33.153Z,26.48
2018-04-29T11:36:33.152Z,26.42
2018-04-29T11:37:33.148Z,26.39
2018-04-29T11:38:33.154Z,26.46
2018-04-29T11:39:33.133Z,26.44
2018-04-29T11:40:33.144Z,26.36
2018-04-29T11:41:33.124Z,26.33
2018-04-29T11:42:33.124Z,26.36
2018-04-29T11:43:33.115Z,26.27
2018-04-29T11:44:33.107Z,26.29
2018-04-29T11:45:33.107Z,26.30
2018-04-29T11:46:33.098Z,26.22
2018-04-29T11:47:33.090Z,26.27
2018-04-29T11:48:33.091Z,26.13
2018-04-29T11:49:33.084Z,26.15
2018-04-29T11:50:33.076Z,26.16
2018-04-29T11:51:33.075Z,26.13
2018-04-29T11:52:33.064Z,26.11
2018-04-29T11:53:33.059Z,26.29
2018-04-29T11:54:33.056Z,26.23
2018-04-29T11:55:33.052Z,26.30
2018-04-29T11:56:33.055Z,26.30
2018-04-29T11:57:33.038Z,26.36
2018-04-29T11:58:33.034Z,26.31
2018-04-29T11:59:33.034Z,26.30
2018-04-29T12:00:33.022Z,26.31
2018-04-29T12:01:33.016Z,26.33
2018-04-29T12:02:33.071Z,26.33
2018-04-29T12:03:33.006Z,26.31
2018-04-29T12:04:33.003Z,26.30
2018-04-29T12:05:33.001Z,26.31
2018-04-29T12:06:32.994Z,26.33
2018-04-29T12:07:32.986Z,26.30
2018-04-29T12:08:32.978Z,26.30
2018-04-29T12:09:32.974Z,26.34
2018-04-29T12:10:32.969Z,26.31
2018-04-29T12:11:32.962Z,26.31
2018-04-29T12:12:32.960Z,26.27
2018-04-29T12:13:32.958Z,26.31
2018-04-29T12:14:32.946Z,26.30
2018-04-29T12:15:32.945Z,26.31
2018-04-29T12:16:33.029Z,26.31
2018-04-29T12:17:32.932Z,26.29
2018-04-29T12:18:32.926Z,26.31
2018-04-29T12:19:32.925Z,26.27
2018-04-29T12:20:32.916Z,26.27
2018-04-29T12:21:32.911Z,26.29
2018-04-29T12:22:32.911Z,26.30
2018-04-29T12:23:32.903Z,26.13
2018-04-29T12:24:32.936Z,26.24
2018-04-29T12:25:32.891Z,26.15
2018-04-29T12:26:32.888Z,26.15
2018-04-29T12:27:32.879Z,26.13
2018-04-29T12:28:32.875Z,26.18
2018-04-29T12:29:32.863Z,26.15
2018-04-29T12:30:32.861Z,26.18
2018-04-29T12:31:32.860Z,26.07
2018-04-29T12:32:32.856Z,26.04
2018-04-29T12:33:32.858Z,26.03
2018-04-29T12:34:32.844Z,26.08
2018-04-29T12:35:32.831Z,26.04
2018-04-29T12:36:32.827Z,26.18
2018-04-29T12:37:32.822Z,26.13
2018-04-29T12:38:32.818Z,26.13
2018-04-29T12:39:32.822Z,25.98
2018-04-29T12:40:32.806Z,26.10
2018-04-29T12:41:32.809Z,26.07
2018-04-29T12:42:32.796Z,26.06
2018-04-29T12:43:32.789Z,25.96
2018-04-29T12:44:32.786Z,26.04
2018-04-29T12:45:32.781Z,26.03
2018-04-29T12:46:32.776Z,25.95
2018-04-29T12:47:32.766Z,26.01
2018-04-29T12:48:32.765Z,25.99
2018-04-29T12:49:32.760Z,25.98
2018-04-29T12:50:32.758Z,25.93
2018-04-29T12:51:32.745Z,25.95
2018-04-29T12:52:32.739Z,25.93